sensor_id;sensor_type;location;lat;lon;timestamp;temperature;humidity
71523;HTU21D;59343;51.102;5.884;2022-12-29T00:00:51;12.27;85.28
71523;HTU21D;59343;51.102;5.884;2022-12-29T00:03:17;12.28;85.32
71523;HTU21D;59343;51.102;5.884;2022-12-29T00:05:43;12.28;85.30
71523;HTU21D;59343;51.102;5.884;2022-12-29T00:08:09;12.25;85.64
71523;HTU21D;59343;51.102;5.884;2022-12-29T00:10:35;12.21;86.19
71523;HTU21D;59343;51.102;5.884;2022-12-29T00:13:01;12.15;86.87
71523;HTU21D;59343;51.102;5.884;2022-12-29T00:15:45;12.10;87.12
71523;HTU21D;59343;51.102;5.884;2022-12-29T00:18:11;12.05;87.52
71523;HTU21D;59343;51.102;5.884;2022-12-29T00:20:37;12.01;87.72
71523;HTU21D;59343;51.102;5.884;2022-12-29T00:23:23;12.02;87.74
71523;HTU21D;59343;51.102;5.884;2022-12-29T00:26:16;12.00;87.79
71523;HTU21D;59343;51.102;5.884;2022-12-29T00:29:01;12.06;87.50
71523;HTU21D;59343;51.102;5.884;2022-12-29T00:31:47;12.06;87.37
71523;HTU21D;59343;51.102;5.884;2022-12-29T00:34:31;12.16;86.58
71523;HTU21D;59343;51.102;5.884;2022-12-29T00:37:16;12.21;86.02
71523;HTU21D;59343;51.102;5.884;2022-12-29T00:40:03;12.30;85.12
71523;HTU21D;59343;51.102;5.884;2022-12-29T00:42:48;12.32;84.90
71523;HTU21D;59343;51.102;5.884;2022-12-29T00:45:32;12.40;84.37
71523;HTU21D;59343;51.102;5.884;2022-12-29T00:47:58;12.48;83.52
71523;HTU21D;59343;51.102;5.884;2022-12-29T00:50:24;12.49;82.91
71523;HTU21D;59343;51.102;5.884;2022-12-29T00:52:50;12.53;82.63
71523;HTU21D;59343;51.102;5.884;2022-12-29T00:55:16;12.60;82.09
71523;HTU21D;59343;51.102;5.884;2022-12-29T00:57:42;12.58;82.10
71523;HTU21D;59343;51.102;5.884;2022-12-29T01:00:08;12.62;81.72
71523;HTU21D;59343;51.102;5.884;2022-12-29T01:02:34;12.66;81.55
71523;HTU21D;59343;51.102;5.884;2022-12-29T01:05:01;12.71;81.29
71523;HTU21D;59343;51.102;5.884;2022-12-29T01:07:27;12.74;80.91
71523;HTU21D;59343;51.102;5.884;2022-12-29T01:09:53;12.77;80.78
71523;HTU21D;59343;51.102;5.884;2022-12-29T01:12:38;12.73;80.76
71523;HTU21D;59343;51.102;5.884;2022-12-29T01:15:10;12.74;80.82
71523;HTU21D;59343;51.102;5.884;2022-12-29T01:17:36;12.73;80.74
71523;HTU21D;59343;51.102;5.884;2022-12-29T01:20:03;12.73;80.63
71523;HTU21D;59343;51.102;5.884;2022-12-29T01:22:30;12.69;80.68
71523;HTU21D;59343;51.102;5.884;2022-12-29T01:24:56;12.67;80.51
71523;HTU21D;59343;51.102;5.884;2022-12-29T01:27:22;12.64;80.43
71523;HTU21D;59343;51.102;5.884;2022-12-29T01:29:48;12.62;80.27
71523;HTU21D;59343;51.102;5.884;2022-12-29T01:32:14;12.63;80.09
71523;HTU21D;59343;51.102;5.884;2022-12-29T01:34:42;12.61;79.84
71523;HTU21D;59343;51.102;5.884;2022-12-29T01:37:08;12.65;79.69
71523;HTU21D;59343;51.102;5.884;2022-12-29T01:39:34;12.73;79.13
71523;HTU21D;59343;51.102;5.884;2022-12-29T01:42:00;12.71;78.96
71523;HTU21D;59343;51.102;5.884;2022-12-29T01:44:52;12.66;79.08
71523;HTU21D;59343;51.102;5.884;2022-12-29T01:47:34;12.70;78.88
71523;HTU21D;59343;51.102;5.884;2022-12-29T01:50:40;12.72;78.58
71523;HTU21D;59343;51.102;5.884;2022-12-29T01:53:18;12.75;78.44
71523;HTU21D;59343;51.102;5.884;2022-12-29T01:55:53;12.74;78.11
71523;HTU21D;59343;51.102;5.884;2022-12-29T01:58:28;12.70;78.12
71523;HTU21D;59343;51.102;5.884;2022-12-29T02:00:55;12.70;77.82
71523;HTU21D;59343;51.102;5.884;2022-12-29T02:03:25;12.69;77.77
71523;HTU21D;59343;51.102;5.884;2022-12-29T02:08:20;12.73;77.44
71523;HTU21D;59343;51.102;5.884;2022-12-29T02:10:48;12.77;77.21
71523;HTU21D;59343;51.102;5.884;2022-12-29T02:13:17;12.73;77.56
71523;HTU21D;59343;51.102;5.884;2022-12-29T02:30:29;12.69;78.56
71523;HTU21D;59343;51.102;5.884;2022-12-29T02:41:42;12.61;79.33
71523;HTU21D;59343;51.102;5.884;2022-12-29T02:44:07;12.61;79.10
71523;HTU21D;59343;51.102;5.884;2022-12-29T02:52:01;12.74;78.35
71523;HTU21D;59343;51.102;5.884;2022-12-29T02:54:29;12.78;78.24
71523;HTU21D;59343;51.102;5.884;2022-12-29T02:57:33;12.75;78.55
71523;HTU21D;59343;51.102;5.884;2022-12-29T03:00:15;12.73;78.70
71523;HTU21D;59343;51.102;5.884;2022-12-29T03:08:44;12.71;79.29
71523;HTU21D;59343;51.102;5.884;2022-12-29T03:11:15;12.73;79.19
71523;HTU21D;59343;51.102;5.884;2022-12-29T03:14:27;12.76;79.02
71523;HTU21D;59343;51.102;5.884;2022-12-29T03:20:09;12.74;78.89
71523;HTU21D;59343;51.102;5.884;2022-12-29T03:22:46;12.77;78.77
71523;HTU21D;59343;51.102;5.884;2022-12-29T03:25:30;12.78;78.79
71523;HTU21D;59343;51.102;5.884;2022-12-29T03:28:06;12.79;78.94
71523;HTU21D;59343;51.102;5.884;2022-12-29T03:30:41;12.85;78.78
71523;HTU21D;59343;51.102;5.884;2022-12-29T03:33:12;12.86;78.46
71523;HTU21D;59343;51.102;5.884;2022-12-29T03:35:43;12.88;78.37
71523;HTU21D;59343;51.102;5.884;2022-12-29T03:40:43;12.93;78.31
71523;HTU21D;59343;51.102;5.884;2022-12-29T03:43:12;12.92;78.53
71523;HTU21D;59343;51.102;5.884;2022-12-29T03:45:38;12.90;78.72
71523;HTU21D;59343;51.102;5.884;2022-12-29T03:48:05;12.87;78.88
71523;HTU21D;59343;51.102;5.884;2022-12-29T03:50:31;12.84;78.85
71523;HTU21D;59343;51.102;5.884;2022-12-29T03:52:57;12.87;78.53
71523;HTU21D;59343;51.102;5.884;2022-12-29T03:55:26;12.90;78.42
71523;HTU21D;59343;51.102;5.884;2022-12-29T03:57:52;12.93;77.97
71523;HTU21D;59343;51.102;5.884;2022-12-29T04:00:29;12.99;77.66
71523;HTU21D;59343;51.102;5.884;2022-12-29T04:02:58;13.02;76.99
71523;HTU21D;59343;51.102;5.884;2022-12-29T04:05:26;13.00;77.02
71523;HTU21D;59343;51.102;5.884;2022-12-29T04:07:54;12.95;76.98
71523;HTU21D;59343;51.102;5.884;2022-12-29T04:10:21;12.96;76.86
71523;HTU21D;59343;51.102;5.884;2022-12-29T04:12:50;12.99;76.80
71523;HTU21D;59343;51.102;5.884;2022-12-29T04:15:19;12.96;76.72
71523;HTU21D;59343;51.102;5.884;2022-12-29T04:17:45;12.97;76.82
71523;HTU21D;59343;51.102;5.884;2022-12-29T04:20:12;13.00;76.85
71523;HTU21D;59343;51.102;5.884;2022-12-29T04:23:03;12.99;76.76
71523;HTU21D;59343;51.102;5.884;2022-12-29T04:25:31;12.97;76.76
71523;HTU21D;59343;51.102;5.884;2022-12-29T04:28:00;12.96;76.58
71523;HTU21D;59343;51.102;5.884;2022-12-29T04:30:46;12.99;76.44
71523;HTU21D;59343;51.102;5.884;2022-12-29T04:33:32;12.94;76.08
71523;HTU21D;59343;51.102;5.884;2022-12-29T04:35:58;12.92;76.07
71523;HTU21D;59343;51.102;5.884;2022-12-29T04:38:25;12.94;76.52
71523;HTU21D;59343;51.102;5.884;2022-12-29T04:40:51;12.94;76.86
71523;HTU21D;59343;51.102;5.884;2022-12-29T04:43:20;12.87;77.51
71523;HTU21D;59343;51.102;5.884;2022-12-29T04:46:14;12.69;78.22
71523;HTU21D;59343;51.102;5.884;2022-12-29T04:48:52;12.57;79.18
71523;HTU21D;59343;51.102;5.884;2022-12-29T04:51:44;12.52;78.97
71523;HTU21D;59343;51.102;5.884;2022-12-29T04:54:12;12.48;78.98
71523;HTU21D;59343;51.102;5.884;2022-12-29T04:56:39;12.38;79.19
71523;HTU21D;59343;51.102;5.884;2022-12-29T04:59:05;12.35;79.11
71523;HTU21D;59343;51.102;5.884;2022-12-29T05:01:31;12.23;79.43
71523;HTU21D;59343;51.102;5.884;2022-12-29T05:03:57;12.22;79.41
71523;HTU21D;59343;51.102;5.884;2022-12-29T05:06:23;12.22;79.47
71523;HTU21D;59343;51.102;5.884;2022-12-29T05:08:49;12.16;79.82
71523;HTU21D;59343;51.102;5.884;2022-12-29T05:11:21;12.16;79.78
71523;HTU21D;59343;51.102;5.884;2022-12-29T05:13:49;12.11;80.05
71523;HTU21D;59343;51.102;5.884;2022-12-29T05:16:16;12.06;80.36
71523;HTU21D;59343;51.102;5.884;2022-12-29T05:18:43;12.02;80.46
71523;HTU21D;59343;51.102;5.884;2022-12-29T05:21:09;12.02;80.61
71523;HTU21D;59343;51.102;5.884;2022-12-29T05:23:36;11.99;80.91
71523;HTU21D;59343;51.102;5.884;2022-12-29T05:26:05;11.98;80.85
71523;HTU21D;59343;51.102;5.884;2022-12-29T05:28:52;11.98;80.79
71523;HTU21D;59343;51.102;5.884;2022-12-29T05:31:19;11.99;80.78
71523;HTU21D;59343;51.102;5.884;2022-12-29T05:33:47;11.94;80.75
71523;HTU21D;59343;51.102;5.884;2022-12-29T05:36:14;11.96;80.59
71523;HTU21D;59343;51.102;5.884;2022-12-29T05:38:45;12.00;80.14
71523;HTU21D;59343;51.102;5.884;2022-12-29T05:41:13;12.06;79.69
71523;HTU21D;59343;51.102;5.884;2022-12-29T05:44:00;12.10;79.21
71523;HTU21D;59343;51.102;5.884;2022-12-29T05:46:58;12.12;78.68
71523;HTU21D;59343;51.102;5.884;2022-12-29T05:49:54;12.21;78.00
71523;HTU21D;59343;51.102;5.884;2022-12-29T05:52:38;12.23;77.66
71523;HTU21D;59343;51.102;5.884;2022-12-29T05:55:04;12.32;77.27
71523;HTU21D;59343;51.102;5.884;2022-12-29T05:57:32;12.33;77.27
71523;HTU21D;59343;51.102;5.884;2022-12-29T06:00:06;12.38;76.91
71523;HTU21D;59343;51.102;5.884;2022-12-29T06:02:40;12.44;76.50
71523;HTU21D;59343;51.102;5.884;2022-12-29T06:05:07;12.45;76.41
71523;HTU21D;59343;51.102;5.884;2022-12-29T06:07:35;12.47;76.18
71523;HTU21D;59343;51.102;5.884;2022-12-29T06:10:02;12.48;76.02
71523;HTU21D;59343;51.102;5.884;2022-12-29T06:12:32;12.50;75.30
71523;HTU21D;59343;51.102;5.884;2022-12-29T06:14:58;12.55;74.85
71523;HTU21D;59343;51.102;5.884;2022-12-29T06:17:26;12.51;74.86
71523;HTU21D;59343;51.102;5.884;2022-12-29T06:19:52;12.49;74.87
71523;HTU21D;59343;51.102;5.884;2022-12-29T06:22:19;12.52;74.42
71523;HTU21D;59343;51.102;5.884;2022-12-29T06:24:45;12.50;74.48
71523;HTU21D;59343;51.102;5.884;2022-12-29T06:27:12;12.49;74.30
71523;HTU21D;59343;51.102;5.884;2022-12-29T06:29:40;12.52;74.38
71523;HTU21D;59343;51.102;5.884;2022-12-29T06:32:08;12.57;74.15
71523;HTU21D;59343;51.102;5.884;2022-12-29T06:34:35;12.56;73.86
71523;HTU21D;59343;51.102;5.884;2022-12-29T06:37:01;12.55;73.71
71523;HTU21D;59343;51.102;5.884;2022-12-29T06:39:28;12.50;73.24
71523;HTU21D;59343;51.102;5.884;2022-12-29T06:42:03;12.48;73.34
71523;HTU21D;59343;51.102;5.884;2022-12-29T06:44:50;12.46;72.82
71523;HTU21D;59343;51.102;5.884;2022-12-29T06:47:16;12.43;72.93
71523;HTU21D;59343;51.102;5.884;2022-12-29T06:49:42;12.37;73.00
71523;HTU21D;59343;51.102;5.884;2022-12-29T06:52:09;12.33;72.94
71523;HTU21D;59343;51.102;5.884;2022-12-29T06:54:35;12.33;73.27
71523;HTU21D;59343;51.102;5.884;2022-12-29T06:57:01;12.34;72.96
71523;HTU21D;59343;51.102;5.884;2022-12-29T06:59:27;12.34;72.87
71523;HTU21D;59343;51.102;5.884;2022-12-29T07:01:53;12.31;72.77
71523;HTU21D;59343;51.102;5.884;2022-12-29T07:04:19;12.27;72.99
71523;HTU21D;59343;51.102;5.884;2022-12-29T07:06:46;12.23;72.55
71523;HTU21D;59343;51.102;5.884;2022-12-29T07:09:12;12.26;72.89
71523;HTU21D;59343;51.102;5.884;2022-12-29T07:11:38;12.26;73.03
71523;HTU21D;59343;51.102;5.884;2022-12-29T07:14:04;12.32;72.82
71523;HTU21D;59343;51.102;5.884;2022-12-29T07:16:31;12.33;72.79
71523;HTU21D;59343;51.102;5.884;2022-12-29T07:18:58;12.33;72.75
71523;HTU21D;59343;51.102;5.884;2022-12-29T07:21:25;12.27;72.72
71523;HTU21D;59343;51.102;5.884;2022-12-29T07:23:51;12.29;72.71
71523;HTU21D;59343;51.102;5.884;2022-12-29T07:26:17;12.22;72.60
71523;HTU21D;59343;51.102;5.884;2022-12-29T07:28:44;12.23;72.71
71523;HTU21D;59343;51.102;5.884;2022-12-29T07:31:15;12.23;72.70
71523;HTU21D;59343;51.102;5.884;2022-12-29T07:33:42;12.19;72.91
71523;HTU21D;59343;51.102;5.884;2022-12-29T07:36:12;12.21;72.67
71523;HTU21D;59343;51.102;5.884;2022-12-29T07:38:39;12.25;72.58
71523;HTU21D;59343;51.102;5.884;2022-12-29T07:41:05;12.25;72.49
71523;HTU21D;59343;51.102;5.884;2022-12-29T07:43:31;12.20;72.62
71523;HTU21D;59343;51.102;5.884;2022-12-29T07:46:20;12.18;72.49
71523;HTU21D;59343;51.102;5.884;2022-12-29T07:48:46;12.15;72.55
71523;HTU21D;59343;51.102;5.884;2022-12-29T07:51:12;12.18;72.16
71523;HTU21D;59343;51.102;5.884;2022-12-29T07:53:39;12.25;72.03
71523;HTU21D;59343;51.102;5.884;2022-12-29T07:56:05;12.23;72.32
71523;HTU21D;59343;51.102;5.884;2022-12-29T07:58:32;12.27;72.12
71523;HTU21D;59343;51.102;5.884;2022-12-29T08:00:58;12.28;72.14
71523;HTU21D;59343;51.102;5.884;2022-12-29T08:03:24;12.18;72.33
71523;HTU21D;59343;51.102;5.884;2022-12-29T08:05:51;12.11;72.75
71523;HTU21D;59343;51.102;5.884;2022-12-29T08:08:18;12.04;73.03
71523;HTU21D;59343;51.102;5.884;2022-12-29T08:10:44;12.04;73.24
71523;HTU21D;59343;51.102;5.884;2022-12-29T08:13:10;11.99;73.52
71523;HTU21D;59343;51.102;5.884;2022-12-29T08:15:38;11.99;73.69
71523;HTU21D;59343;51.102;5.884;2022-12-29T08:18:04;11.97;74.01
71523;HTU21D;59343;51.102;5.884;2022-12-29T08:20:30;11.94;74.27
71523;HTU21D;59343;51.102;5.884;2022-12-29T08:22:57;11.98;74.36
71523;HTU21D;59343;51.102;5.884;2022-12-29T08:25:23;11.97;74.24
71523;HTU21D;59343;51.102;5.884;2022-12-29T08:27:49;12.11;73.73
71523;HTU21D;59343;51.102;5.884;2022-12-29T08:30:16;12.05;73.54
71523;HTU21D;59343;51.102;5.884;2022-12-29T08:32:42;12.03;73.48
71523;HTU21D;59343;51.102;5.884;2022-12-29T08:35:08;12.03;73.43
71523;HTU21D;59343;51.102;5.884;2022-12-29T08:37:35;12.03;73.63
71523;HTU21D;59343;51.102;5.884;2022-12-29T08:40:01;12.13;73.50
71523;HTU21D;59343;51.102;5.884;2022-12-29T08:42:30;12.19;73.28
71523;HTU21D;59343;51.102;5.884;2022-12-29T08:45:00;12.23;72.99
71523;HTU21D;59343;51.102;5.884;2022-12-29T08:47:26;12.25;72.67
71523;HTU21D;59343;51.102;5.884;2022-12-29T08:49:53;12.28;72.55
71523;HTU21D;59343;51.102;5.884;2022-12-29T08:52:19;12.38;72.09
71523;HTU21D;59343;51.102;5.884;2022-12-29T08:54:45;12.35;71.35
71523;HTU21D;59343;51.102;5.884;2022-12-29T08:57:11;12.35;71.35
71523;HTU21D;59343;51.102;5.884;2022-12-29T08:59:47;12.35;70.87
71523;HTU21D;59343;51.102;5.884;2022-12-29T09:02:13;12.33;70.91
71523;HTU21D;59343;51.102;5.884;2022-12-29T09:04:40;12.28;70.84
71523;HTU21D;59343;51.102;5.884;2022-12-29T09:07:06;12.28;70.73
71523;HTU21D;59343;51.102;5.884;2022-12-29T09:09:33;12.30;70.52
71523;HTU21D;59343;51.102;5.884;2022-12-29T09:11:59;12.29;70.03
71523;HTU21D;59343;51.102;5.884;2022-12-29T09:14:25;12.27;70.42
71523;HTU21D;59343;51.102;5.884;2022-12-29T09:16:53;12.29;69.47
71523;HTU21D;59343;51.102;5.884;2022-12-29T09:19:37;12.27;69.85
71523;HTU21D;59343;51.102;5.884;2022-12-29T09:22:03;12.26;69.85
71523;HTU21D;59343;51.102;5.884;2022-12-29T09:24:30;12.25;69.74
71523;HTU21D;59343;51.102;5.884;2022-12-29T09:26:56;12.20;69.81
71523;HTU21D;59343;51.102;5.884;2022-12-29T09:29:22;12.21;69.28
71523;HTU21D;59343;51.102;5.884;2022-12-29T09:31:48;12.25;69.47
71523;HTU21D;59343;51.102;5.884;2022-12-29T09:34:14;12.26;69.53
71523;HTU21D;59343;51.102;5.884;2022-12-29T09:36:41;12.27;69.14
71523;HTU21D;59343;51.102;5.884;2022-12-29T09:39:07;12.33;69.02
71523;HTU21D;59343;51.102;5.884;2022-12-29T09:41:49;12.37;68.65
71523;HTU21D;59343;51.102;5.884;2022-12-29T09:47:19;12.36;67.93
71523;HTU21D;59343;51.102;5.884;2022-12-29T09:49:54;12.34;68.22
71523;HTU21D;59343;51.102;5.884;2022-12-29T09:52:27;12.35;68.41
71523;HTU21D;59343;51.102;5.884;2022-12-29T09:55:04;12.40;68.15
71523;HTU21D;59343;51.102;5.884;2022-12-29T09:58:01;12.42;67.81
71523;HTU21D;59343;51.102;5.884;2022-12-29T10:00:54;12.45;67.26
71523;HTU21D;59343;51.102;5.884;2022-12-29T10:09:21;12.45;66.98
71523;HTU21D;59343;51.102;5.884;2022-12-29T10:24:51;12.65;66.02
71523;HTU21D;59343;51.102;5.884;2022-12-29T10:27:26;12.69;65.95
71523;HTU21D;59343;51.102;5.884;2022-12-29T10:30:12;12.77;65.77
71523;HTU21D;59343;51.102;5.884;2022-12-29T10:32:54;12.86;65.77
71523;HTU21D;59343;51.102;5.884;2022-12-29T10:35:31;13.01;64.76
71523;HTU21D;59343;51.102;5.884;2022-12-29T10:38:27;12.92;64.66
71523;HTU21D;59343;51.102;5.884;2022-12-29T10:41:13;12.96;64.82
71523;HTU21D;59343;51.102;5.884;2022-12-29T10:43:46;13.00;64.40
71523;HTU21D;59343;51.102;5.884;2022-12-29T10:46:18;13.06;64.24
71523;HTU21D;59343;51.102;5.884;2022-12-29T10:48:46;13.04;63.79
71523;HTU21D;59343;51.102;5.884;2022-12-29T10:51:28;13.01;63.50
71523;HTU21D;59343;51.102;5.884;2022-12-29T10:54:20;12.91;63.81
71523;HTU21D;59343;51.102;5.884;2022-12-29T10:56:54;12.85;64.08
71523;HTU21D;59343;51.102;5.884;2022-12-29T10:59:25;12.88;64.18
71523;HTU21D;59343;51.102;5.884;2022-12-29T11:05:02;12.84;64.26
71523;HTU21D;59343;51.102;5.884;2022-12-29T11:07:30;12.85;64.37
71523;HTU21D;59343;51.102;5.884;2022-12-29T11:10:19;12.81;64.40
71523;HTU21D;59343;51.102;5.884;2022-12-29T11:13:01;12.80;64.15
71523;HTU21D;59343;51.102;5.884;2022-12-29T11:15:27;12.77;64.46
71523;HTU21D;59343;51.102;5.884;2022-12-29T11:18:03;12.77;64.42
71523;HTU21D;59343;51.102;5.884;2022-12-29T11:22:59;12.81;64.52
71523;HTU21D;59343;51.102;5.884;2022-12-29T11:25:25;12.85;64.42
71523;HTU21D;59343;51.102;5.884;2022-12-29T11:28:21;12.86;64.44
71523;HTU21D;59343;51.102;5.884;2022-12-29T11:30:59;12.85;64.11
71523;HTU21D;59343;51.102;5.884;2022-12-29T11:33:27;12.81;64.47
71523;HTU21D;59343;51.102;5.884;2022-12-29T11:36:08;12.82;64.40
71523;HTU21D;59343;51.102;5.884;2022-12-29T11:38:40;12.78;64.58
71523;HTU21D;59343;51.102;5.884;2022-12-29T11:41:13;12.78;64.53
71523;HTU21D;59343;51.102;5.884;2022-12-29T11:43:44;12.78;64.63
71523;HTU21D;59343;51.102;5.884;2022-12-29T11:46:18;12.76;64.76
71523;HTU21D;59343;51.102;5.884;2022-12-29T11:48:46;12.77;64.24
71523;HTU21D;59343;51.102;5.884;2022-12-29T11:51:25;12.67;64.53
71523;HTU21D;59343;51.102;5.884;2022-12-29T11:53:57;12.66;64.74
71523;HTU21D;59343;51.102;5.884;2022-12-29T11:56:35;12.67;64.65
71523;HTU21D;59343;51.102;5.884;2022-12-29T12:01:54;12.69;64.79
71523;HTU21D;59343;51.102;5.884;2022-12-29T12:04:26;12.66;65.03
71523;HTU21D;59343;51.102;5.884;2022-12-29T12:07:17;12.72;64.82
71523;HTU21D;59343;51.102;5.884;2022-12-29T12:09:58;12.73;64.58
71523;HTU21D;59343;51.102;5.884;2022-12-29T12:14:58;12.67;64.51
71523;HTU21D;59343;51.102;5.884;2022-12-29T12:17:55;12.66;64.69
71523;HTU21D;59343;51.102;5.884;2022-12-29T12:20:44;12.66;64.71
71523;HTU21D;59343;51.102;5.884;2022-12-29T12:26:20;12.61;65.26
71523;HTU21D;59343;51.102;5.884;2022-12-29T12:29:04;12.63;64.98
71523;HTU21D;59343;51.102;5.884;2022-12-29T12:31:48;12.65;64.88
71523;HTU21D;59343;51.102;5.884;2022-12-29T12:34:33;12.65;64.48
71523;HTU21D;59343;51.102;5.884;2022-12-29T12:42:28;12.69;64.67
71523;HTU21D;59343;51.102;5.884;2022-12-29T12:48:20;12.90;64.85
71523;HTU21D;59343;51.102;5.884;2022-12-29T12:51:06;12.96;64.47
71523;HTU21D;59343;51.102;5.884;2022-12-29T12:56:47;13.02;63.88
71523;HTU21D;59343;51.102;5.884;2022-12-29T12:59:33;12.96;63.90
71523;HTU21D;59343;51.102;5.884;2022-12-29T13:13:32;12.89;63.44
71523;HTU21D;59343;51.102;5.884;2022-12-29T13:16:14;12.80;63.98
71523;HTU21D;59343;51.102;5.884;2022-12-29T13:26:34;12.73;64.21
71523;HTU21D;59343;51.102;5.884;2022-12-29T13:29:16;12.69;64.31
71523;HTU21D;59343;51.102;5.884;2022-12-29T13:35:04;12.66;64.56
71523;HTU21D;59343;51.102;5.884;2022-12-29T13:37:53;12.64;64.53
71523;HTU21D;59343;51.102;5.884;2022-12-29T13:40:24;12.61;64.66
71523;HTU21D;59343;51.102;5.884;2022-12-29T13:42:53;12.59;65.05
71523;HTU21D;59343;51.102;5.884;2022-12-29T13:45:24;12.65;64.74
71523;HTU21D;59343;51.102;5.884;2022-12-29T13:50:29;12.60;64.63
71523;HTU21D;59343;51.102;5.884;2022-12-29T13:53:08;12.55;64.79
71523;HTU21D;59343;51.102;5.884;2022-12-29T13:55:58;12.55;64.81
71523;HTU21D;59343;51.102;5.884;2022-12-29T14:01:26;12.64;64.76
71523;HTU21D;59343;51.102;5.884;2022-12-29T14:04:03;12.69;64.48
71523;HTU21D;59343;51.102;5.884;2022-12-29T14:06:35;12.62;64.29
71523;HTU21D;59343;51.102;5.884;2022-12-29T14:18:21;12.53;65.06
71523;HTU21D;59343;51.102;5.884;2022-12-29T14:23:34;12.51;64.92
71523;HTU21D;59343;51.102;5.884;2022-12-29T14:28:33;12.46;65.17
71523;HTU21D;59343;51.102;5.884;2022-12-29T14:31:02;12.41;65.37
71523;HTU21D;59343;51.102;5.884;2022-12-29T14:33:34;12.36;65.35
71523;HTU21D;59343;51.102;5.884;2022-12-29T14:38:46;12.36;65.55
71523;HTU21D;59343;51.102;5.884;2022-12-29T14:44:02;12.31;65.73
71523;HTU21D;59343;51.102;5.884;2022-12-29T14:49:21;12.25;65.49
71523;HTU21D;59343;51.102;5.884;2022-12-29T14:51:52;12.17;66.20
71523;HTU21D;59343;51.102;5.884;2022-12-29T14:57:07;11.96;67.69
71523;HTU21D;59343;51.102;5.884;2022-12-29T14:59:36;11.85;68.14
71523;HTU21D;59343;51.102;5.884;2022-12-29T15:02:15;11.77;68.55
71523;HTU21D;59343;51.102;5.884;2022-12-29T15:04:42;11.75;68.79
71523;HTU21D;59343;51.102;5.884;2022-12-29T15:07:10;11.72;68.76
71523;HTU21D;59343;51.102;5.884;2022-12-29T15:09:45;11.67;68.94
71523;HTU21D;59343;51.102;5.884;2022-12-29T15:14:54;11.61;69.49
71523;HTU21D;59343;51.102;5.884;2022-12-29T15:17:30;11.58;69.88
71523;HTU21D;59343;51.102;5.884;2022-12-29T15:19:58;11.54;70.37
71523;HTU21D;59343;51.102;5.884;2022-12-29T15:22:25;11.47;70.78
71523;HTU21D;59343;51.102;5.884;2022-12-29T15:24:54;11.47;71.07
71523;HTU21D;59343;51.102;5.884;2022-12-29T15:27:25;11.45;71.21
71523;HTU21D;59343;51.102;5.884;2022-12-29T15:29:57;11.37;71.48
71523;HTU21D;59343;51.102;5.884;2022-12-29T15:32:26;11.33;71.77
71523;HTU21D;59343;51.102;5.884;2022-12-29T15:34:57;11.25;72.16
71523;HTU21D;59343;51.102;5.884;2022-12-29T15:37:28;11.22;72.48
71523;HTU21D;59343;51.102;5.884;2022-12-29T15:39:57;11.22;72.70
71523;HTU21D;59343;51.102;5.884;2022-12-29T15:42:45;11.24;72.56
71523;HTU21D;59343;51.102;5.884;2022-12-29T15:45:13;11.25;72.38
71523;HTU21D;59343;51.102;5.884;2022-12-29T15:47:42;11.25;71.57
71523;HTU21D;59343;51.102;5.884;2022-12-29T15:50:26;11.22;71.71
71523;HTU21D;59343;51.102;5.884;2022-12-29T15:52:52;11.25;71.54
71523;HTU21D;59343;51.102;5.884;2022-12-29T15:55:32;11.24;71.42
71523;HTU21D;59343;51.102;5.884;2022-12-29T15:58:02;11.29;71.22
71523;HTU21D;59343;51.102;5.884;2022-12-29T16:00:35;11.37;70.76
71523;HTU21D;59343;51.102;5.884;2022-12-29T16:03:05;11.39;70.26
71523;HTU21D;59343;51.102;5.884;2022-12-29T16:05:38;11.44;69.27
71523;HTU21D;59343;51.102;5.884;2022-12-29T16:08:38;11.47;68.78
71523;HTU21D;59343;51.102;5.884;2022-12-29T16:13:56;11.42;68.61
71523;HTU21D;59343;51.102;5.884;2022-12-29T16:16:30;11.37;68.75
71523;HTU21D;59343;51.102;5.884;2022-12-29T16:18:58;11.31;68.71
71523;HTU21D;59343;51.102;5.884;2022-12-29T16:21:34;11.26;68.53
71523;HTU21D;59343;51.102;5.884;2022-12-29T16:24:07;11.16;68.78
71523;HTU21D;59343;51.102;5.884;2022-12-29T16:26:34;11.14;68.92
71523;HTU21D;59343;51.102;5.884;2022-12-29T16:29:06;11.12;69.14
71523;HTU21D;59343;51.102;5.884;2022-12-29T16:31:56;11.15;69.13
71523;HTU21D;59343;51.102;5.884;2022-12-29T16:34:30;11.20;69.04
71523;HTU21D;59343;51.102;5.884;2022-12-29T16:37:30;11.18;69.23
71523;HTU21D;59343;51.102;5.884;2022-12-29T16:39:58;11.19;69.44
71523;HTU21D;59343;51.102;5.884;2022-12-29T16:50:35;10.95;71.91
71523;HTU21D;59343;51.102;5.884;2022-12-29T16:53:05;10.70;73.25
71523;HTU21D;59343;51.102;5.884;2022-12-29T16:55:32;10.44;75.03
71523;HTU21D;59343;51.102;5.884;2022-12-29T16:57:59;10.15;76.12
71523;HTU21D;59343;51.102;5.884;2022-12-29T17:00:27;10.04;76.87
71523;HTU21D;59343;51.102;5.884;2022-12-29T17:02:58;9.92;77.03
71523;HTU21D;59343;51.102;5.884;2022-12-29T17:05:25;9.84;77.32
71523;HTU21D;59343;51.102;5.884;2022-12-29T17:07:51;9.77;77.50
71523;HTU21D;59343;51.102;5.884;2022-12-29T17:10:18;9.71;77.76
71523;HTU21D;59343;51.102;5.884;2022-12-29T17:12:47;9.68;77.98
71523;HTU21D;59343;51.102;5.884;2022-12-29T17:15:34;9.65;78.30
71523;HTU21D;59343;51.102;5.884;2022-12-29T17:18:00;9.69;78.26
71523;HTU21D;59343;51.102;5.884;2022-12-29T17:20:28;9.68;78.50
71523;HTU21D;59343;51.102;5.884;2022-12-29T17:22:58;9.68;78.67
71523;HTU21D;59343;51.102;5.884;2022-12-29T17:25:32;9.70;78.92
71523;HTU21D;59343;51.102;5.884;2022-12-29T17:28:02;9.74;78.91
71523;HTU21D;59343;51.102;5.884;2022-12-29T17:30:32;9.77;78.58
71523;HTU21D;59343;51.102;5.884;2022-12-29T17:33:09;9.79;78.25
71523;HTU21D;59343;51.102;5.884;2022-12-29T17:35:37;9.80;77.87
71523;HTU21D;59343;51.102;5.884;2022-12-29T17:38:21;9.79;77.77
71523;HTU21D;59343;51.102;5.884;2022-12-29T17:40:48;9.79;77.64
71523;HTU21D;59343;51.102;5.884;2022-12-29T17:43:16;9.81;77.50
71523;HTU21D;59343;51.102;5.884;2022-12-29T17:45:48;9.77;77.31
71523;HTU21D;59343;51.102;5.884;2022-12-29T17:48:17;9.75;77.29
71523;HTU21D;59343;51.102;5.884;2022-12-29T17:50:46;9.75;77.12
71523;HTU21D;59343;51.102;5.884;2022-12-29T17:53:18;9.74;77.02
71523;HTU21D;59343;51.102;5.884;2022-12-29T17:55:47;9.72;76.92
71523;HTU21D;59343;51.102;5.884;2022-12-29T17:58:18;9.74;76.47
71523;HTU21D;59343;51.102;5.884;2022-12-29T18:00:46;9.70;76.30
71523;HTU21D;59343;51.102;5.884;2022-12-29T18:03:24;9.65;76.23
71523;HTU21D;59343;51.102;5.884;2022-12-29T18:05:51;9.67;76.07
71523;HTU21D;59343;51.102;5.884;2022-12-29T18:08:17;9.65;75.92
71523;HTU21D;59343;51.102;5.884;2022-12-29T18:10:44;9.64;75.95
71523;HTU21D;59343;51.102;5.884;2022-12-29T18:13:36;9.64;75.81
71523;HTU21D;59343;51.102;5.884;2022-12-29T18:16:04;9.65;75.82
71523;HTU21D;59343;51.102;5.884;2022-12-29T18:18:30;9.65;75.84
71523;HTU21D;59343;51.102;5.884;2022-12-29T18:20:58;9.64;75.67
71523;HTU21D;59343;51.102;5.884;2022-12-29T18:23:32;9.62;75.59
71523;HTU21D;59343;51.102;5.884;2022-12-29T18:26:05;9.60;75.56